Time;durP1;ratioP1;P1;durP2;ratioP2;P2;SDS_P1;SDS_P2;PMS_P1;PMS_P2;Temp;Humidity;BMP_temperature;BMP_pressure;BME280_temperature;BME280_humidity;BME280_pressure;Samples;Min_cycle;Max_cycle;Signal;HPM_P1;HPM_P2
2022/09/02 00:01:24;;;;;;;2.83;1.10;;;;;;;13.60;61.01;100734.13;5072175;28;20542;-62
2022/09/02 00:03:52;;;;;;;3.10;0.93;;;;;;;13.56;60.65;100729.06;5059962;28;20551;-61
2022/09/02 00:06:19;;;;;;;1.93;0.90;;;;;;;13.63;60.32;100720.41;5060422;28;20499;-59
2022/09/02 00:08:46;;;;;;;5.13;1.60;;;;;;;13.62;60.28;100718.72;5069138;28;20461;-60
2022/09/02 00:11:16;;;;;;;2.00;0.87;;;;;;;13.62;61.83;100713.34;5060308;28;20500;-61
2022/09/02 00:13:43;;;;;;;1.83;1.00;;;;;;;13.52;61.71;100711.56;5079881;28;20480;-61
2022/09/02 00:16:10;;;;;;;2.03;0.97;;;;;;;13.48;61.98;100714.66;5079147;28;20567;-61
2022/09/02 00:18:40;;;;;;;1.13;0.80;;;;;;;13.37;62.87;100713.03;5077842;28;20521;-62
2022/09/02 00:21:07;;;;;;;1.30;1.00;;;;;;;13.28;62.82;100711.16;5079887;28;20532;-61
2022/09/02 00:23:34;;;;;;;2.03;1.30;;;;;;;13.18;63.36;100708.53;5063447;28;20480;-61
2022/09/02 00:26:01;;;;;;;1.30;0.80;;;;;;;13.12;63.54;100712.66;5079365;28;20467;-61
2022/09/02 00:28:27;;;;;;;1.90;1.13;;;;;;;13.19;63.76;100699.47;5075846;28;20452;-60
2022/09/02 00:30:54;;;;;;;1.37;0.90;;;;;;;13.37;62.95;100699.59;5067091;28;20969;-60
2022/09/02 00:33:21;;;;;;;1.33;0.87;;;;;;;13.49;61.88;100700.25;5060940;28;20488;-61
2022/09/02 00:35:49;;;;;;;1.33;1.00;;;;;;;13.59;61.94;100706.41;5070884;28;20480;-61
2022/09/02 00:38:16;;;;;;;3.37;0.83;;;;;;;13.55;61.63;100699.66;5060097;28;20498;-60
2022/09/02 00:40:45;;;;;;;2.13;0.90;;;;;;;13.55;61.19;100697.78;5076529;28;20484;-60
2022/09/02 00:43:12;;;;;;;1.90;0.87;;;;;;;13.61;60.69;100692.81;5079242;28;20471;-60
2022/09/02 00:45:38;;;;;;;1.47;0.90;;;;;;;13.64;60.23;100696.06;5073255;28;20508;-60
2022/09/02 00:48:05;;;;;;;3.30;1.30;;;;;;;13.58;60.67;100696.66;5067858;28;20452;-60
2022/09/02 00:50:35;;;;;;;1.60;0.87;;;;;;;13.50;60.92;100691.19;5083296;28;20515;-60
2022/09/02 00:53:05;;;;;;;2.30;0.93;;;;;;;13.60;60.07;100685.78;5081334;28;20503;-60
2022/09/02 00:55:36;;;;;;;2.40;0.90;;;;;;;13.60;60.10;100681.25;5063069;28;20477;-61
2022/09/02 00:58:05;;;;;;;1.77;1.33;;;;;;;13.57;60.22;100692.28;5067050;28;20455;-60
2022/09/02 01:00:36;;;;;;;2.50;1.07;;;;;;;13.56;60.19;100694.13;5076460;28;20538;-61
2022/09/02 01:03:06;;;;;;;1.10;0.70;;;;;;;13.39;61.11;100689.53;5063154;28;20468;-61
2022/09/02 01:05:43;;;;;;;2.70;1.00;;;;;;;13.31;61.87;100692.94;5063080;28;20460;-60
2022/09/02 01:08:12;;;;;;;3.30;1.17;;;;;;;13.14;62.58;100691.88;5064659;28;21043;-60
2022/09/02 01:10:39;;;;;;;3.00;0.93;;;;;;;13.00;62.89;100697.69;5063183;28;20529;-61
2022/09/02 01:13:09;;;;;;;1.20;0.90;;;;;;;12.91;63.01;100696.72;5070200;28;20452;-61
2022/09/02 01:15:39;;;;;;;1.70;1.20;;;;;;;12.75;63.13;100686.59;5066653;28;20479;-61
2022/09/02 01:18:06;;;;;;;2.90;1.30;;;;;;;12.67;63.37;100693.66;5075377;28;20462;-61
2022/09/02 01:20:34;;;;;;;3.10;1.40;;;;;;;12.61;63.74;100690.56;5082581;28;20498;-60
2022/09/02 01:23:02;;;;;;;7.63;1.83;;;;;;;12.54;64.35;100693.97;5069552;28;20437;-61
2022/09/02 01:25:31;;;;;;;4.70;1.10;;;;;;;12.53;64.86;100689.59;5073886;28;20460;-61
2022/09/02 01:28:01;;;;;;;2.10;1.10;;;;;;;12.51;64.65;100687.03;5068681;28;20488;-60
2022/09/02 01:30:28;;;;;;;5.80;1.50;;;;;;;12.49;64.69;100693.56;5079849;28;20479;-60
2022/09/02 01:32:55;;;;;;;3.80;1.10;;;;;;;12.45;64.90;100693.00;5074283;28;20827;-60
2022/09/02 01:35:23;;;;;;;4.00;1.43;;;;;;;12.42;65.15;100691.44;5068251;28;20460;-61
2022/09/02 01:37:50;;;;;;;3.53;1.30;;;;;;;12.43;65.06;100690.44;5081051;28;20451;-60
2022/09/02 01:40:18;;;;;;;3.90;1.40;;;;;;;12.41;65.13;100688.88;5056771;28;20542;-60
2022/09/02 01:42:46;;;;;;;2.00;1.10;;;;;;;12.39;65.69;100685.50;5078765;28;20464;-60
2022/09/02 01:45:14;;;;;;;3.03;1.27;;;;;;;12.35;65.98;100684.09;5062000;28;20429;-60
2022/09/02 01:47:40;;;;;;;7.70;1.50;;;;;;;12.31;66.21;100680.88;5078019;28;20452;-60
2022/09/02 01:50:08;;;;;;;1.60;1.13;;;;;;;12.23;66.62;100680.72;5071972;28;20502;-60
2022/09/02 01:52:35;;;;;;;5.13;1.17;;;;;;;12.16;67.00;100677.75;5063670;28;20452;-60
2022/09/02 01:55:03;;;;;;;3.97;1.10;;;;;;;12.11;67.63;100671.13;5076893;28;20508;-60
2022/09/02 01:57:31;;;;;;;2.13;1.20;;;;;;;12.10;67.77;100674.78;5075349;28;20481;-60
2022/09/02 01:59:57;;;;;;;1.80;1.13;;;;;;;12.07;68.06;100670.56;5044155;28;20802;-60
2022/09/02 02:02:24;;;;;;;2.70;1.57;;;;;;;12.04;68.13;100665.47;5081072;28;21021;-61
2022/09/02 02:04:51;;;;;;;2.10;1.33;;;;;;;12.00;67.89;100661.38;5074801;28;20444;-61
2022/09/02 02:07:19;;;;;;;1.50;1.30;;;;;;;11.98;67.90;100663.38;5063018;28;20947;-61
2022/09/02 02:09:47;;;;;;;2.27;1.47;;;;;;;11.98;67.91;100658.00;5067160;28;20745;-61
2022/09/02 02:12:14;;;;;;;2.77;1.40;;;;;;;11.97;67.75;100658.97;5061910;28;20581;-61
2022/09/02 02:14:42;;;;;;;5.17;1.57;;;;;;;11.94;67.89;100654.72;5067224;28;20443;-61
2022/09/02 02:17:09;;;;;;;1.47;1.23;;;;;;;11.91;68.23;100654.16;5080548;28;20479;-60
2022/09/02 02:19:35;;;;;;;1.50;1.30;;;;;;;11.85;68.62;100656.38;5065405;28;20452;-61
2022/09/02 02:22:03;;;;;;;2.00;1.37;;;;;;;11.79;69.14;100656.09;5062763;28;20468;-61
2022/09/02 02:24:30;;;;;;;2.33;1.87;;;;;;;11.74;69.48;100661.03;5042254;28;20430;-61
2022/09/02 02:26:56;;;;;;;2.30;1.50;;;;;;;11.72;69.80;100650.47;5041633;28;20478;-61
2022/09/02 02:29:23;;;;;;;2.70;1.60;;;;;;;11.71;69.73;100647.91;5064773;28;20461;-61
2022/09/02 02:31:51;;;;;;;1.50;1.40;;;;;;;11.68;69.68;100652.56;5076718;28;21269;-60
2022/09/02 02:34:18;;;;;;;2.23;1.83;;;;;;;11.67;69.86;100648.19;5073320;28;20456;-60
2022/09/02 02:36:45;;;;;;;4.07;1.67;;;;;;;11.61;70.07;100647.88;5062361;28;20508;-60
2022/09/02 02:39:12;;;;;;;4.67;2.00;;;;;;;11.53;70.32;100650.38;5061629;28;20476;-60
2022/09/02 02:41:40;;;;;;;5.80;2.60;;;;;;;11.47;70.80;100652.66;5069864;28;20503;-60
2022/09/02 02:44:08;;;;;;;2.37;1.50;;;;;;;11.48;70.91;100646.31;5078540;28;20441;-60
2022/09/02 02:46:35;;;;;;;3.20;2.90;;;;;;;11.48;70.88;100643.63;5080802;28;20467;-60
2022/09/02 02:49:04;;;;;;;3.17;2.40;;;;;;;11.45;70.86;100643.06;5076494;28;20452;-60
2022/09/02 02:51:31;;;;;;;2.13;1.93;;;;;;;11.41;70.74;100639.81;5069388;28;20472;-61
2022/09/02 02:53:57;;;;;;;2.40;2.00;;;;;;;11.43;70.73;100639.66;5070386;28;20445;-60
2022/09/02 02:56:24;;;;;;;3.90;2.40;;;;;;;11.39;70.78;100640.94;5060936;28;20469;-60
2022/09/02 02:58:51;;;;;;;2.50;2.20;;;;;;;11.33;71.35;100634.28;5062671;28;20483;-60
2022/09/02 03:01:17;;;;;;;3.53;2.23;;;;;;;11.30;71.38;100634.53;5061756;28;20819;-60
2022/09/02 03:03:44;;;;;;;2.50;2.30;;;;;;;11.27;71.28;100638.34;5060608;28;21043;-60
2022/09/02 03:06:12;;;;;;;3.20;2.63;;;;;;;11.21;71.52;100630.84;5070004;28;20510;-60
2022/09/02 03:08:39;;;;;;;4.80;2.80;;;;;;;11.20;71.54;100637.19;5080611;28;20855;-60
2022/09/02 03:11:06;;;;;;;4.00;2.70;;;;;;;11.15;71.78;100636.75;5080899;28;20533;-60
2022/09/02 03:13:33;;;;;;;5.20;2.50;;;;;;;11.12;71.77;100637.84;5073840;28;20467;-60
2022/09/02 03:16:00;;;;;;;3.87;2.80;;;;;;;11.08;71.91;100632.94;5066879;28;20529;-60
2022/09/02 03:18:27;;;;;;;5.00;2.67;;;;;;;11.00;71.87;100640.78;5075782;28;20578;-60
2022/09/02 03:20:54;;;;;;;4.80;2.67;;;;;;;10.97;71.94;100641.03;5060871;28;20476;-60
2022/09/02 03:23:22;;;;;;;3.73;2.57;;;;;;;10.95;71.90;100635.81;5061942;28;20437;-60
2022/09/02 03:25:49;;;;;;;4.00;2.50;;;;;;;10.89;72.15;100631.84;5060699;28;20499;-60
2022/09/02 03:28:16;;;;;;;3.67;2.60;;;;;;;10.90;72.13;100636.22;5065902;28;20470;-60
2022/09/02 03:30:43;;;;;;;2.67;2.23;;;;;;;10.90;71.87;100635.38;5061308;28;20496;-60
2022/09/02 03:33:09;;;;;;;3.40;2.57;;;;;;;10.85;72.35;100634.91;5065852;28;20437;-59
2022/09/02 03:35:40;;;;;;;4.23;2.60;;;;;;;10.79;72.81;100632.78;5080452;28;20480;-59
2022/09/02 03:38:07;;;;;;;4.57;2.90;;;;;;;10.79;73.01;100632.78;5077041;28;20750;-61
2022/09/02 03:40:36;;;;;;;3.10;2.47;;;;;;;10.76;72.86;100627.69;5060112;28;20498;-61
2022/09/02 03:43:02;;;;;;;3.87;2.47;;;;;;;10.75;72.80;100629.53;5061558;28;20814;-60
2022/09/02 03:45:29;;;;;;;2.27;2.07;;;;;;;10.69;72.80;100630.91;5072438;28;20520;-60
2022/09/02 03:47:57;;;;;;;3.30;2.00;;;;;;;10.69;72.90;100622.91;5065533;28;20522;-60
2022/09/02 03:50:26;;;;;;;2.10;1.90;;;;;;;10.67;72.72;100615.97;5060478;28;20460;-59
2022/09/02 03:52:54;;;;;;;4.47;2.33;;;;;;;10.64;72.60;100625.13;5061950;28;20434;-60
2022/09/02 03:55:21;;;;;;;2.63;1.93;;;;;;;10.63;72.99;100620.72;5069794;28;20523;-60
2022/09/02 03:57:49;;;;;;;3.43;2.30;;;;;;;10.62;72.64;100627.06;5064807;28;20443;-60
2022/09/02 04:00:18;;;;;;;4.13;2.03;;;;;;;10.58;72.71;100617.59;5076910;28;20451;-59
2022/09/02 04:02:44;;;;;;;2.00;1.80;;;;;;;10.53;73.21;100620.66;5066173;28;20499;-60
2022/09/02 04:05:12;;;;;;;2.60;1.77;;;;;;;10.52;73.25;100610.97;5069710;28;20528;-60
2022/09/02 04:07:39;;;;;;;3.07;1.90;;;;;;;10.51;72.96;100616.44;5079373;28;21038;-60
2022/09/02 04:10:08;;;;;;;2.83;1.83;;;;;;;10.46;73.13;100614.16;5080324;28;20444;-61
2022/09/02 04:12:34;;;;;;;2.70;2.10;;;;;;;10.44;73.58;100616.13;5063068;28;20484;-60
2022/09/02 04:15:03;;;;;;;10.03;2.00;;;;;;;10.46;73.63;100613.31;5072294;28;20440;-60
2022/09/02 04:21:19;;;;;;;3.60;2.30;;;;;;;10.42;73.95;100614.56;5078884;28;20546;-61
2022/09/02 04:23:46;;;;;;;1.87;1.43;;;;;;;10.35;74.02;100623.09;5084293;28;20930;-60
2022/09/02 04:26:15;;;;;;;2.83;2.00;;;;;;;10.34;73.90;100616.03;5062917;28;20468;-60
2022/09/02 04:28:42;;;;;;;6.20;2.80;;;;;;;10.37;74.10;100612.28;5063960;28;20503;-60
2022/09/02 04:31:12;;;;;;;2.60;2.00;;;;;;;10.39;74.01;100606.81;5064201;28;20469;-60
2022/09/02 04:33:39;;;;;;;3.77;1.90;;;;;;;10.29;74.13;100612.88;5063626;28;20481;-61
2022/09/02 04:36:07;;;;;;;2.50;1.97;;;;;;;10.28;74.15;100608.53;5069472;28;20468;-61
2022/09/02 04:38:34;;;;;;;6.63;2.67;;;;;;;10.36;74.54;100605.22;5073150;28;20452;-69
2022/09/02 04:41:01;;;;;;;5.00;2.30;;;;;;;10.31;74.47;100610.06;5076057;28;20535;-68
2022/09/02 04:43:27;;;;;;;11.07;2.40;;;;;;;10.17;74.90;100605.91;5072325;28;20958;-68
2022/09/02 04:45:55;;;;;;;3.47;2.80;;;;;;;10.15;75.07;100607.84;5062884;28;20973;-67
2022/09/02 04:48:23;;;;;;;4.90;2.57;;;;;;;10.29;75.88;100601.34;5062763;28;20535;-67
2022/09/02 04:50:50;;;;;;;6.40;2.07;;;;;;;11.25;78.31;100616.22;5071574;28;20471;-66
2022/09/02 04:53:17;;;;;;;7.40;2.10;;;;;;;12.08;75.43;100613.25;5083789;28;20437;-66
2022/09/02 04:55:43;;;;;;;8.20;2.53;;;;;;;12.24;72.57;100610.03;5081145;28;20499;-68
2022/09/02 04:58:10;;;;;;;5.93;2.20;;;;;;;12.42;70.47;100607.47;5077419;28;20448;-68
2022/09/02 05:00:38;;;;;;;4.40;2.30;;;;;;;12.42;70.08;100607.47;5063304;28;20468;-68
2022/09/02 05:03:05;;;;;;;5.93;2.70;;;;;;;12.86;68.42;100609.59;5063724;28;20500;-67
2022/09/02 05:05:34;;;;;;;3.77;2.40;;;;;;;13.43;64.33;100604.97;5063376;28;20468;-67
2022/09/02 05:08:00;;;;;;;4.57;2.23;;;;;;;14.16;62.52;100608.56;5063432;28;20802;-67
2022/09/02 05:10:27;;;;;;;5.90;2.00;;;;;;;14.80;60.73;100609.22;5062938;28;20550;-67
2022/09/02 05:12:54;;;;;;;5.20;2.10;;;;;;;15.22;58.53;100603.03;5063224;28;20425;-68
2022/09/02 05:15:21;;;;;;;6.27;2.40;;;;;;;15.38;56.97;100610.31;5060399;28;20960;-66
2022/09/02 05:17:48;;;;;;;4.23;2.50;;;;;;;15.75;54.46;100603.72;5079358;28;20494;-66
2022/09/02 05:20:14;;;;;;;5.80;2.60;;;;;;;15.97;53.07;100607.63;5080870;28;20531;-66
2022/09/02 05:22:42;;;;;;;3.03;1.90;;;;;;;16.24;53.26;100608.31;5064336;28;20481;-66
2022/09/02 05:25:10;;;;;;;4.40;2.00;;;;;;;17.33;50.25;100595.28;5064664;28;20493;-66
2022/09/02 05:27:38;;;;;;;3.87;1.80;;;;;;;17.78;49.21;100602.59;5063937;28;20457;-67
2022/09/02 05:30:06;;;;;;;4.30;2.20;;;;;;;18.14;49.16;100601.19;5060712;28;20494;-67
2022/09/02 05:32:33;;;;;;;4.57;1.87;;;;;;;18.45;47.80;100598.38;5062137;28;20437;-67
2022/09/02 05:35:00;;;;;;;4.00;1.93;;;;;;;18.81;46.38;100598.50;5062061;28;20457;-66
2022/09/02 05:37:26;;;;;;;3.13;1.73;;;;;;;19.64;45.12;100598.34;5062280;28;20543;-67
2022/09/02 05:39:57;;;;;;;4.00;2.00;;;;;;;19.49;43.95;100598.38;5062671;28;20513;-68
2022/09/02 05:42:24;;;;;;;9.63;2.40;;;;;;;19.78;44.06;100595.81;5081252;28;20492;-67
2022/09/02 05:44:53;;;;;;;3.57;2.23;;;;;;;19.86;43.60;100596.53;5082476;28;20489;-68
2022/09/02 05:47:19;;;;;;;3.50;1.70;;;;;;;20.74;41.30;100606.28;5083932;28;20541;-67
2022/09/02 05:49:46;;;;;;;3.73;2.17;;;;;;;21.20;40.36;100594.84;5102585;28;20475;-67
2022/09/02 05:52:13;;;;;;;3.83;2.40;;;;;;;20.64;41.11;100596.63;5102260;28;20473;-67
2022/09/02 05:54:41;;;;;;;5.00;2.20;;;;;;;21.40;39.97;100592.19;5101860;28;20445;-67
2022/09/02 05:57:11;;;;;;;4.13;1.80;;;;;;;21.87;38.32;100595.06;5101962;28;20560;-67
2022/09/02 05:59:41;;;;;;;4.33;2.07;;;;;;;20.44;40.60;100601.03;5101929;28;20460;-67
2022/09/02 06:02:08;;;;;;;4.33;1.50;;;;;;;21.00;40.80;100590.13;5102291;28;20488;-67
2022/09/02 06:04:38;;;;;;;4.20;2.07;;;;;;;20.99;40.46;100596.63;5101515;28;20443;-67
2022/09/02 06:07:05;;;;;;;2.47;1.60;;;;;;;20.25;42.21;100595.22;5102225;28;20556;-67
2022/09/02 06:09:32;;;;;;;3.23;1.57;;;;;;;21.70;39.17;100586.44;5090492;28;20457;-67
2022/09/02 06:11:58;;;;;;;2.80;1.60;;;;;;;20.78;40.41;100589.38;5093176;28;21626;-66
2022/09/02 06:14:27;;;;;;;4.83;2.23;;;;;;;20.76;40.92;100596.91;5082287;28;20433;-67
2022/09/02 06:16:55;;;;;;;3.53;1.53;;;;;;;21.70;39.34;100590.03;5080531;28;20507;-67
2022/09/02 06:19:24;;;;;;;3.30;1.53;;;;;;;21.02;40.30;100598.94;5081273;28;20498;-67
2022/09/02 06:21:51;;;;;;;4.70;1.90;;;;;;;21.61;39.13;100591.25;5081214;28;20481;-67
2022/09/02 06:24:17;;;;;;;3.53;1.40;;;;;;;22.06;38.22;100590.72;5080908;28;20473;-68
2022/09/02 06:26:44;;;;;;;3.60;1.63;;;;;;;21.57;39.71;100588.09;5080919;28;20478;-66
2022/09/02 06:29:12;;;;;;;4.30;1.50;;;;;;;23.27;36.01;100586.81;5088535;28;20483;-68
2022/09/02 06:31:42;;;;;;;2.20;1.40;;;;;;;22.48;38.16;100591.38;5089969;28;20489;-69
2022/09/02 06:34:12;;;;;;;3.83;1.60;;;;;;;22.13;38.06;100581.50;5080698;28;20520;-68
2022/09/02 06:36:40;;;;;;;1.53;1.10;;;;;;;22.65;37.84;100581.69;5078739;28;20485;-68
2022/09/02 06:39:06;;;;;;;3.40;1.87;;;;;;;22.30;39.01;100579.22;5081725;28;20456;-70
2022/09/02 06:41:34;;;;;;;1.90;1.47;;;;;;;23.08;36.89;100581.22;5078103;28;20487;-70
2022/09/02 06:44:02;;;;;;;3.90;1.33;;;;;;;22.63;37.83;100580.25;5096568;28;20521;-70
2022/09/02 06:46:31;;;;;;;1.90;1.20;;;;;;;24.06;35.15;100588.28;5099369;28;20467;-70
2022/09/02 06:48:59;;;;;;;3.67;1.60;;;;;;;25.07;33.22;100576.41;5099806;28;20473;-68
2022/09/02 06:51:27;;;;;;;2.23;1.00;;;;;;;24.14;35.05;100587.16;5099525;28;20490;-70
2022/09/02 06:53:54;;;;;;;3.03;1.50;;;;;;;24.67;34.45;100580.44;5100397;28;20445;-71
2022/09/02 06:56:21;;;;;;;2.70;1.30;;;;;;;23.18;37.49;100582.66;5100536;27;20477;-68
2022/09/02 06:58:48;;;;;;;4.43;1.50;;;;;;;23.69;36.51;100579.03;5100006;28;20453;-69
2022/09/02 07:01:18;;;;;;;3.10;1.07;;;;;;;25.02;33.92;100582.56;5100280;28;20470;-70
2022/09/02 07:06:36;;;;;;;2.30;1.30;;;;;;;24.91;34.21;100584.19;5063658;28;20695;-69
2022/09/02 07:09:03;;;;;;;1.53;1.20;;;;;;;26.32;31.83;100574.91;5100798;28;20461;-69
2022/09/02 07:11:30;;;;;;;2.33;1.23;;;;;;;25.25;33.94;100583.78;5100090;28;20538;-68
2022/09/02 07:14:00;;;;;;;4.83;1.33;;;;;;;25.07;33.91;100574.53;5100723;28;20438;-70
2022/09/02 07:16:26;;;;;;;4.63;1.27;;;;;;;24.91;34.00;100575.09;5119740;28;20483;-71
2022/09/02 07:18:53;;;;;;;2.60;1.03;;;;;;;24.91;34.18;100581.44;5098925;28;21006;-69
2022/09/02 07:21:20;;;;;;;4.43;1.70;;;;;;;25.11;33.77;100569.41;5099105;28;20889;-69
2022/09/02 07:23:48;;;;;;;2.03;1.10;;;;;;;25.42;33.49;100573.06;5113382;28;20501;-69
2022/09/02 07:26:16;;;;;;;3.43;1.07;;;;;;;26.07;32.39;100575.91;5115422;28;20481;-69
2022/09/02 07:28:43;;;;;;;3.43;1.27;;;;;;;25.86;32.31;100560.81;5099326;28;20475;-70
2022/09/02 07:31:10;;;;;;;2.83;1.17;;;;;;;25.61;33.43;100565.66;5104922;28;20484;-69
2022/09/02 07:33:37;;;;;;;2.83;1.20;;;;;;;24.97;33.88;100572.31;5106641;28;20454;-68
2022/09/02 07:36:05;;;;;;;4.30;1.20;;;;;;;26.38;31.92;100562.97;5098179;28;20473;-69
2022/09/02 07:38:31;;;;;;;3.33;1.27;;;;;;;26.62;31.31;100563.00;5100002;28;20457;-69
2022/09/02 07:41:00;;;;;;;2.20;1.17;;;;;;;26.41;31.70;100567.16;5091411;28;20510;-68
2022/09/02 07:43:28;;;;;;;3.00;1.20;;;;;;;26.10;32.25;100564.47;5078203;28;20832;-70
2022/09/02 07:45:55;;;;;;;2.70;1.57;;;;;;;25.31;33.58;100567.31;5080109;28;20483;-68
2022/09/02 07:48:22;;;;;;;3.03;1.50;;;;;;;25.13;33.99;100570.03;5082097;28;20526;-69
2022/09/02 07:50:48;;;;;;;2.53;1.17;;;;;;;25.06;34.36;100563.81;5078785;28;20515;-69
2022/09/02 07:53:15;;;;;;;5.97;1.47;;;;;;;25.26;34.10;100571.78;5079849;28;20427;-69
2022/09/02 07:55:42;;;;;;;4.23;1.40;;;;;;;25.79;33.18;100570.22;5084218;28;20474;-69
2022/09/02 07:58:10;;;;;;;1.57;1.17;;;;;;;26.59;31.65;100566.19;5099568;28;20542;-68
2022/09/02 08:00:38;;;;;;;5.53;1.43;;;;;;;26.97;31.28;100567.59;5117665;28;20461;-69
2022/09/02 08:03:05;;;;;;;2.50;1.37;;;;;;;27.36;30.66;100562.38;5117088;28;20485;-70
2022/09/02 08:05:32;;;;;;;2.90;1.10;;;;;;;27.06;30.59;100546.94;5098410;28;20491;-68
2022/09/02 08:08:00;;;;;;;2.23;1.13;;;;;;;25.92;32.51;100559.06;5099861;28;20515;-69
2022/09/02 08:10:28;;;;;;;3.03;0.90;;;;;;;26.14;32.32;100553.88;5099494;28;20465;-70
2022/09/02 08:12:55;;;;;;;3.17;1.30;;;;;;;26.36;31.88;100551.41;5101986;28;20948;-68
2022/09/02 08:15:27;;;;;;;1.80;1.27;;;;;;;26.49;31.58;100553.06;5119953;28;20458;-69
2022/09/02 08:17:54;;;;;;;2.30;1.10;;;;;;;27.35;31.05;100560.72;5120540;28;20447;-70
2022/09/02 08:20:21;;;;;;;4.57;1.43;;;;;;;26.84;30.80;100560.47;5099447;28;20535;-69
2022/09/02 08:22:48;;;;;;;4.23;1.47;;;;;;;27.29;30.44;100556.19;5100108;28;20495;-70
2022/09/02 08:25:17;;;;;;;1.73;1.20;;;;;;;26.40;31.70;100557.25;5099517;28;20437;-69
2022/09/02 08:27:44;;;;;;;1.57;1.10;;;;;;;26.53;30.72;100546.03;5101748;28;20468;-70
2022/09/02 08:30:11;;;;;;;1.80;1.20;;;;;;;26.57;31.14;100540.91;5108116;28;20463;-69
2022/09/02 08:32:40;;;;;;;3.50;1.00;;;;;;;26.41;31.60;100548.78;5102909;28;20446;-68
2022/09/02 08:35:09;;;;;;;1.77;1.20;;;;;;;26.77;30.72;100551.53;5098177;27;20482;-67
2022/09/02 08:37:36;;;;;;;3.30;1.40;;;;;;;27.12;30.58;100553.38;5098920;28;20460;-69
2022/09/02 08:40:05;;;;;;;1.30;0.90;;;;;;;27.65;30.04;100549.47;5096169;28;20481;-66
2022/09/02 08:42:33;;;;;;;2.40;1.33;;;;;;;28.19;29.06;100543.53;5098480;28;20593;-69
2022/09/02 08:45:06;;;;;;;3.87;1.53;;;;;;;28.01;29.33;100543.81;5099757;28;20830;-70
2022/09/02 08:47:35;;;;;;;2.23;1.40;;;;;;;26.55;30.79;100535.66;5098560;28;20446;-69
2022/09/02 08:50:09;;;;;;;4.50;1.30;;;;;;;27.49;30.38;100528.31;5096351;28;20524;-69
2022/09/02 08:52:39;;;;;;;3.63;1.40;;;;;;;28.27;28.97;100528.56;5098660;28;20904;-71
2022/09/02 08:55:07;;;;;;;2.77;1.27;;;;;;;28.62;28.30;100530.19;5099046;28;20471;-70
2022/09/02 08:57:35;;;;;;;1.80;1.23;;;;;;;28.79;27.95;100530.16;5097689;28;20946;-70
2022/09/02 09:00:02;;;;;;;1.93;1.37;;;;;;;28.02;28.63;100526.22;5098567;28;20453;-69
2022/09/02 09:02:36;;;;;;;3.03;1.37;;;;;;;26.80;31.42;100523.63;5101885;28;20515;-67
2022/09/02 09:05:22;;;;;;;1.63;1.10;;;;;;;28.73;28.33;100531.97;5101402;28;20638;-70
2022/09/02 09:08:03;;;;;;;4.13;1.40;;;;;;;28.51;28.29;100531.94;5098940;28;20465;-68
2022/09/02 09:10:38;;;;;;;2.57;1.20;;;;;;;28.42;27.93;100520.53;5100056;28;20462;-69
2022/09/02 09:13:18;;;;;;;3.57;1.37;;;;;;;29.19;27.47;100521.59;5103407;28;20433;-69
2022/09/02 09:15:50;;;;;;;2.40;0.90;;;;;;;28.42;27.92;100523.28;5114933;28;20481;-69
2022/09/02 09:18:19;;;;;;;3.10;1.20;;;;;;;28.02;28.56;100526.22;5120889;28;20481;-69
2022/09/02 09:20:48;;;;;;;2.83;1.40;;;;;;;28.84;28.02;100527.47;5114030;28;21026;-69
2022/09/02 09:23:23;;;;;;;2.40;1.20;;;;;;;27.99;28.28;100519.34;5102023;28;20484;-69
2022/09/02 09:25:52;;;;;;;2.43;1.20;;;;;;;26.90;29.57;100501.88;5101112;28;20947;-70
2022/09/02 09:28:21;;;;;;;2.37;1.20;;;;;;;27.80;28.31;100507.72;5102193;28;20462;-71
2022/09/02 09:30:48;;;;;;;1.43;1.10;;;;;;;27.82;28.64;100505.53;5101970;27;20478;-69
2022/09/02 09:33:17;;;;;;;2.27;1.10;;;;;;;28.36;27.74;100507.78;5101355;28;20442;-70
2022/09/02 09:35:49;;;;;;;1.40;1.00;;;;;;;28.77;27.19;100507.56;5102196;27;20529;-70
2022/09/02 09:38:16;;;;;;;3.80;1.40;;;;;;;28.60;27.70;100499.38;5102269;28;20458;-69
2022/09/02 09:40:43;;;;;;;2.40;1.03;;;;;;;28.18;28.03;100496.00;5100946;28;20482;-68
2022/09/02 09:43:14;;;;;;;2.10;1.10;;;;;;;28.09;27.35;100492.00;5102508;28;20474;-69
2022/09/02 09:45:41;;;;;;;2.60;1.27;;;;;;;27.77;28.19;100487.06;5101363;28;20523;-69
2022/09/02 09:48:15;;;;;;;3.23;1.10;;;;;;;28.29;27.72;100487.91;5118730;28;20522;-68
2022/09/02 09:50:42;;;;;;;3.43;1.20;;;;;;;28.51;27.04;100480.50;5121834;28;20703;-70
2022/09/02 09:53:18;;;;;;;4.10;1.47;;;;;;;28.84;27.18;100478.75;5122777;28;20433;-70
2022/09/02 09:55:51;;;;;;;1.80;1.10;;;;;;;27.52;27.20;100492.94;5103705;27;20477;-68
2022/09/02 09:58:19;;;;;;;5.90;1.63;;;;;;;28.43;27.46;100475.44;5101872;28;20511;-70
2022/09/02 10:00:46;;;;;;;2.50;1.43;;;;;;;27.63;27.96;100471.16;5101537;28;20640;-70
2022/09/02 10:03:22;;;;;;;1.77;1.10;;;;;;;27.84;27.54;100473.16;5080933;28;20495;-69
2022/09/02 10:05:54;;;;;;;2.37;1.30;;;;;;;27.76;27.59;100471.66;5080563;28;20642;-69
2022/09/02 10:08:24;;;;;;;5.63;1.27;;;;;;;28.77;26.77;100463.56;5099556;28;20458;-69
2022/09/02 10:10:59;;;;;;;2.30;1.07;;;;;;;28.82;26.30;100467.19;5098856;27;20494;-69
2022/09/02 10:13:28;;;;;;;3.00;1.30;;;;;;;28.26;27.03;100472.75;5101473;28;20431;-69
2022/09/02 10:16:10;;;;;;;2.40;1.40;;;;;;;28.31;26.95;100461.78;5100315;28;20477;-69
2022/09/02 10:18:40;;;;;;;2.30;1.07;;;;;;;28.21;27.05;100464.44;5079084;28;21018;-71
2022/09/02 10:21:12;;;;;;;1.80;1.00;;;;;;;27.70;27.92;100456.16;5080974;28;20470;-71
2022/09/02 10:23:50;;;;;;;1.60;0.93;;;;;;;29.01;25.93;100451.16;5097687;28;21035;-70
2022/09/02 10:26:25;;;;;;;3.13;1.37;;;;;;;28.17;27.02;100450.34;5099784;28;20487;-70
2022/09/02 10:29:31;;;;;;;2.57;1.20;;;;;;;28.82;26.16;100445.16;5100842;28;20457;-70
2022/09/02 10:32:16;;;;;;;4.10;0.93;;;;;;;29.10;25.63;100443.28;5105818;28;20534;-69
2022/09/02 10:34:47;;;;;;;1.60;1.20;;;;;;;28.72;26.49;100436.78;5104435;28;20447;-69
2022/09/02 10:37:18;;;;;;;1.60;1.13;;;;;;;28.40;26.11;100437.47;5101286;27;21000;-72
2022/09/02 10:39:59;;;;;;;1.90;1.20;;;;;;;28.02;26.63;100422.66;5100303;28;20471;-70
2022/09/02 10:42:33;;;;;;;4.07;1.20;;;;;;;28.41;25.84;100428.13;5100615;28;20486;-71
2022/09/02 10:45:05;;;;;;;2.47;1.30;;;;;;;29.57;24.28;100433.56;5098917;28;20452;-71
2022/09/02 10:47:36;;;;;;;1.80;1.10;;;;;;;28.89;25.66;100417.47;5096240;28;20489;-70
2022/09/02 10:50:11;;;;;;;3.37;0.97;;;;;;;29.36;24.60;100419.59;5100626;28;20455;-69
2022/09/02 10:52:55;;;;;;;5.77;1.37;;;;;;;28.62;25.58;100414.66;5101085;28;20446;-70
2022/09/02 10:55:30;;;;;;;2.47;1.10;;;;;;;28.72;25.76;100425.78;5098973;28;20487;-68
2022/09/02 10:58:00;;;;;;;4.27;2.03;;;;;;;27.17;27.84;100427.22;5080803;28;20510;-68
2022/09/02 11:00:29;;;;;;;2.40;1.10;;;;;;;28.09;26.12;100427.94;5093134;28;20470;-69
2022/09/02 11:03:01;;;;;;;3.17;1.10;;;;;;;27.85;26.02;100428.13;5103750;28;20478;-66
2022/09/02 11:05:34;;;;;;;1.37;1.10;;;;;;;28.59;25.32;100426.16;5100202;28;20523;-69
2022/09/02 11:08:06;;;;;;;5.27;0.93;;;;;;;28.57;25.25;100412.66;5101787;28;20490;-69
2022/09/02 11:10:37;;;;;;;2.20;1.40;;;;;;;28.62;25.13;100409.97;5116167;28;20492;-69
2022/09/02 11:13:07;;;;;;;2.50;1.13;;;;;;;28.83;25.09;100410.22;5121672;28;20437;-68
2022/09/02 11:15:47;;;;;;;2.97;1.30;;;;;;;28.80;24.85;100408.84;5120900;28;20841;-69
2022/09/02 11:18:18;;;;;;;4.33;1.30;;;;;;;28.82;25.13;100414.06;5119848;28;20453;-69
2022/09/02 11:20:49;;;;;;;1.50;1.20;;;;;;;28.98;24.51;100401.31;5120119;28;20498;-69
2022/09/02 11:23:27;;;;;;;2.63;1.50;;;;;;;28.73;24.34;100405.41;5120477;28;20470;-70
2022/09/02 11:26:00;;;;;;;1.87;1.27;;;;;;;27.46;25.18;100403.31;5118056;28;20476;-68
2022/09/02 11:28:32;;;;;;;2.33;1.10;;;;;;;26.56;27.16;100405.72;5121367;28;20514;-70
2022/09/02 11:31:05;;;;;;;2.60;1.43;;;;;;;28.09;25.70;100415.06;5120150;28;20481;-70
2022/09/02 11:33:43;;;;;;;2.13;0.97;;;;;;;27.17;26.45;100416.25;5120268;28;20559;-70
2022/09/02 11:36:10;;;;;;;3.10;1.60;;;;;;;26.68;27.23;100409.28;5120524;28;20496;-70
2022/09/02 11:38:40;;;;;;;1.90;1.10;;;;;;;27.35;26.49;100402.31;5119776;28;20500;-70